sensor_id;sensor_type;location;lat;lon;timestamp;pressure;altitude;pressure_sealevel;temperature;humidity
66486;BME280;53303;47.476;8.084;2022-11-04T00:01:27;95760.97;;;19.24;45.63
66486;BME280;53303;47.476;8.084;2022-11-04T00:03:54;95765.50;;;19.27;45.70
66486;BME280;53303;47.476;8.084;2022-11-04T00:06:20;95758.47;;;19.26;45.76
66486;BME280;53303;47.476;8.084;2022-11-04T00:08:53;95751.63;;;19.21;45.65
66486;BME280;53303;47.476;8.084;2022-11-04T00:11:24;95763.75;;;19.24;45.45
66486;BME280;53303;47.476;8.084;2022-11-04T00:14:10;95753.44;;;19.24;45.47
66486;BME280;53303;47.476;8.084;2022-11-04T00:16:36;95757.44;;;19.23;45.59
66486;BME280;53303;47.476;8.084;2022-11-04T00:19:20;95758.19;;;19.18;45.75
66486;BME280;53303;47.476;8.084;2022-11-04T00:21:46;95768.47;;;19.17;45.39
66486;BME280;53303;47.476;8.084;2022-11-04T00:24:30;95750.59;;;19.13;45.55
66486;BME280;53303;47.476;8.084;2022-11-04T00:27:12;95763.47;;;19.21;45.32
66486;BME280;53303;47.476;8.084;2022-11-04T00:29:56;95745.78;;;19.08;45.24
66486;BME280;53303;47.476;8.084;2022-11-04T00:32:22;95746.31;;;19.12;45.43
66486;BME280;53303;47.476;8.084;2022-11-04T00:35:07;95736.22;;;19.09;45.67
66486;BME280;53303;47.476;8.084;2022-11-04T00:37:37;95752.34;;;19.16;45.71
66486;BME280;53303;47.476;8.084;2022-11-04T00:40:02;95761.47;;;19.22;45.52
66486;BME280;53303;47.476;8.084;2022-11-04T00:42:28;95746.06;;;19.15;45.42
66486;BME280;53303;47.476;8.084;2022-11-04T00:44:53;95750.31;;;19.11;45.51
66486;BME280;53303;47.476;8.084;2022-11-04T00:47:19;95764.22;;;19.22;45.57
66486;BME280;53303;47.476;8.084;2022-11-04T00:49:45;95758.13;;;19.12;45.65
66486;BME280;53303;47.476;8.084;2022-11-04T00:52:11;95718.19;;;18.81;45.71
66486;BME280;53303;47.476;8.084;2022-11-04T00:54:36;95788.91;;;19.26;45.75
66486;BME280;53303;47.476;8.084;2022-11-04T00:57:01;95778.56;;;19.20;45.76
66486;BME280;53303;47.476;8.084;2022-11-04T00:59:27;95779.53;;;19.17;45.88
66486;BME280;53303;47.476;8.084;2022-11-04T01:01:52;95790.38;;;19.21;45.96
66486;BME280;53303;47.476;8.084;2022-11-04T01:04:17;95787.09;;;19.17;46.04
66486;BME280;53303;47.476;8.084;2022-11-04T01:06:44;95805.28;;;19.29;46.05
66486;BME280;53303;47.476;8.084;2022-11-04T01:09:10;95767.91;;;19.08;46.17
66486;BME280;53303;47.476;8.084;2022-11-04T01:11:39;95791.91;;;19.22;46.11
66486;BME280;53303;47.476;8.084;2022-11-04T01:14:06;95817.63;;;19.34;46.02
66486;BME280;53303;47.476;8.084;2022-11-04T01:16:31;95803.78;;;19.34;46.15
66486;BME280;53303;47.476;8.084;2022-11-04T01:18:57;95800.25;;;19.33;46.09
66486;BME280;53303;47.476;8.084;2022-11-04T01:21:23;95793.22;;;19.32;46.05
66486;BME280;53303;47.476;8.084;2022-11-04T01:23:49;95788.94;;;19.31;46.16
66486;BME280;53303;47.476;8.084;2022-11-04T01:26:19;95796.97;;;19.29;46.11
66486;BME280;53303;47.476;8.084;2022-11-04T01:28:45;95784.88;;;19.27;46.11
66486;BME280;53303;47.476;8.084;2022-11-04T01:31:26;95782.38;;;19.29;45.99
66486;BME280;53303;47.476;8.084;2022-11-04T01:33:52;95778.84;;;19.28;46.08
66486;BME280;53303;47.476;8.084;2022-11-04T01:36:19;95777.31;;;19.21;46.05
66486;BME280;53303;47.476;8.084;2022-11-04T01:38:45;95754.88;;;19.14;45.73
66486;BME280;53303;47.476;8.084;2022-11-04T01:43:56;95728.38;;;19.01;45.86
66486;BME280;53303;47.476;8.084;2022-11-04T01:48:56;95753.94;;;19.28;45.93
66486;BME280;53303;47.476;8.084;2022-11-04T01:51:23;95726.47;;;19.13;45.84
66486;BME280;53303;47.476;8.084;2022-11-04T01:53:51;95736.34;;;19.26;45.80
66486;BME280;53303;47.476;8.084;2022-11-04T01:56:19;95742.38;;;19.30;45.86
66486;BME280;53303;47.476;8.084;2022-11-04T01:58:48;95749.13;;;19.23;45.77
66486;BME280;53303;47.476;8.084;2022-11-04T02:01:15;95739.84;;;19.26;45.78
66486;BME280;53303;47.476;8.084;2022-11-04T02:03:52;95736.09;;;19.29;45.67
66486;BME280;53303;47.476;8.084;2022-11-04T02:06:39;95734.81;;;19.25;45.94
66486;BME280;53303;47.476;8.084;2022-11-04T02:09:05;95741.16;;;19.31;45.80
66486;BME280;53303;47.476;8.084;2022-11-04T02:11:30;95731.78;;;19.23;45.75
66486;BME280;53303;47.476;8.084;2022-11-04T02:14:14;95734.81;;;19.25;45.75
66486;BME280;53303;47.476;8.084;2022-11-04T02:16:43;95739.63;;;19.30;45.87
66486;BME280;53303;47.476;8.084;2022-11-04T02:30:18;95717.19;;;19.16;45.74
66486;BME280;53303;47.476;8.084;2022-11-04T02:35:39;95718.44;;;19.21;45.82
66486;BME280;53303;47.476;8.084;2022-11-04T02:38:14;95725.03;;;19.29;45.64
66486;BME280;53303;47.476;8.084;2022-11-04T02:43:26;95716.75;;;19.29;45.58
66486;BME280;53303;47.476;8.084;2022-11-04T02:48:58;95706.63;;;19.20;45.67
66486;BME280;53303;47.476;8.084;2022-11-04T02:51:36;95707.91;;;19.25;45.48
66486;BME280;53303;47.476;8.084;2022-11-04T02:54:08;95702.91;;;19.29;45.60
66486;BME280;53303;47.476;8.084;2022-11-04T02:56:42;95706.41;;;19.30;45.66
66486;BME280;53303;47.476;8.084;2022-11-04T02:59:39;95702.88;;;19.24;45.71
66486;BME280;53303;47.476;8.084;2022-11-04T03:02:06;95692.50;;;19.13;45.93
66486;BME280;53303;47.476;8.084;2022-11-04T03:04:40;95669.13;;;19.14;45.68
66486;BME280;53303;47.476;8.084;2022-11-04T03:07:10;95658.06;;;19.14;45.61
66486;BME280;53303;47.476;8.084;2022-11-04T03:09:40;95646.53;;;19.21;45.10
66486;BME280;53303;47.476;8.084;2022-11-04T03:12:11;95650.56;;;19.20;45.52
66486;BME280;53303;47.476;8.084;2022-11-04T03:14:42;95648.78;;;19.23;45.59
66486;BME280;53303;47.476;8.084;2022-11-04T03:17:25;95664.66;;;19.22;45.36
66486;BME280;53303;47.476;8.084;2022-11-04T03:19:59;95669.94;;;19.26;45.34
66486;BME280;53303;47.476;8.084;2022-11-04T03:22:28;95672.44;;;19.24;45.54
66486;BME280;53303;47.476;8.084;2022-11-04T03:24:54;95660.38;;;19.27;45.61
66486;BME280;53303;47.476;8.084;2022-11-04T03:27:28;95672.22;;;19.27;45.53
66486;BME280;53303;47.476;8.084;2022-11-04T03:30:10;95694.09;;;19.25;45.42
66486;BME280;53303;47.476;8.084;2022-11-04T03:35:20;95685.75;;;19.19;45.43
66486;BME280;53303;47.476;8.084;2022-11-04T03:37:47;95703.13;;;19.26;45.27
66486;BME280;53303;47.476;8.084;2022-11-04T03:40:18;95699.34;;;19.23;45.36
66486;BME280;53303;47.476;8.084;2022-11-04T03:43:06;95709.66;;;19.23;45.23
66486;BME280;53303;47.476;8.084;2022-11-04T03:45:33;95702.38;;;19.25;45.24
66486;BME280;53303;47.476;8.084;2022-11-04T03:48:01;95694.09;;;19.25;45.13
66486;BME280;53303;47.476;8.084;2022-11-04T03:50:38;95695.59;;;19.26;45.41
66486;BME280;53303;47.476;8.084;2022-11-04T03:53:04;95690.03;;;19.20;45.46
66486;BME280;53303;47.476;8.084;2022-11-04T03:55:44;95700.84;;;19.18;45.26
66486;BME280;53303;47.476;8.084;2022-11-04T04:01:27;95699.81;;;19.16;45.48
66486;BME280;53303;47.476;8.084;2022-11-04T04:03:56;95710.41;;;19.23;45.15
66486;BME280;53303;47.476;8.084;2022-11-04T04:06:27;95697.53;;;19.14;45.34
66486;BME280;53303;47.476;8.084;2022-11-04T04:08:57;95702.34;;;19.19;45.23
66486;BME280;53303;47.476;8.084;2022-11-04T04:11:38;95714.69;;;19.24;45.27
66486;BME280;53303;47.476;8.084;2022-11-04T04:14:15;95709.16;;;19.24;45.16
66486;BME280;53303;47.476;8.084;2022-11-04T04:17:14;95707.59;;;19.17;45.34
66486;BME280;53303;47.476;8.084;2022-11-04T04:19:56;95704.59;;;19.15;45.14
66486;BME280;53303;47.476;8.084;2022-11-04T04:22:25;95706.13;;;19.22;45.22
66486;BME280;53303;47.476;8.084;2022-11-04T04:24:55;95697.84;;;19.22;45.11
66486;BME280;53303;47.476;8.084;2022-11-04T04:27:42;95690.03;;;19.20;45.03
66486;BME280;53303;47.476;8.084;2022-11-04T04:30:13;95675.72;;;19.22;45.18
66486;BME280;53303;47.476;8.084;2022-11-04T04:35:10;95663.13;;;19.21;45.19
66486;BME280;53303;47.476;8.084;2022-11-04T04:37:57;95646.25;;;19.13;45.20
66486;BME280;53303;47.476;8.084;2022-11-04T04:40:49;95646.00;;;19.17;45.25
66486;BME280;53303;47.476;8.084;2022-11-04T04:43:37;95636.19;;;19.16;45.27
66486;BME280;53303;47.476;8.084;2022-11-04T04:46:25;95623.84;;;19.11;45.35
66486;BME280;53303;47.476;8.084;2022-11-04T04:48:51;95608.47;;;19.05;45.22
66486;BME280;53303;47.476;8.084;2022-11-04T04:51:17;95628.44;;;19.20;45.18
66486;BME280;53303;47.476;8.084;2022-11-04T04:53:42;95619.56;;;19.10;45.11
66486;BME280;53303;47.476;8.084;2022-11-04T04:56:08;95626.91;;;19.19;45.14
66486;BME280;53303;47.476;8.084;2022-11-04T04:58:33;95603.69;;;19.05;45.47
66486;BME280;53303;47.476;8.084;2022-11-04T05:00:58;95607.00;;;19.09;45.40
66486;BME280;53303;47.476;8.084;2022-11-04T05:03:24;95625.66;;;19.20;45.26
66486;BME280;53303;47.476;8.084;2022-11-04T05:05:51;95609.31;;;19.16;47.78
66486;BME280;53303;47.476;8.084;2022-11-04T05:08:17;95597.19;;;19.14;47.96
66486;BME280;53303;47.476;8.084;2022-11-04T05:10:42;95607.28;;;19.23;48.51
66486;BME280;53303;47.476;8.084;2022-11-04T05:13:08;95609.06;;;19.26;48.20
66486;BME280;53303;47.476;8.084;2022-11-04T05:16:04;95601.78;;;19.28;47.95
66486;BME280;53303;47.476;8.084;2022-11-04T05:18:33;95592.72;;;19.28;47.85
66486;BME280;53303;47.476;8.084;2022-11-04T05:21:05;95599.00;;;19.28;47.63
66486;BME280;53303;47.476;8.084;2022-11-04T05:23:30;95586.44;;;19.21;47.47
66486;BME280;53303;47.476;8.084;2022-11-04T05:25:57;95590.72;;;19.28;47.33
66486;BME280;53303;47.476;8.084;2022-11-04T05:28:23;95583.69;;;19.27;47.20
66486;BME280;53303;47.476;8.084;2022-11-04T05:30:48;95561.50;;;19.16;46.81
66486;BME280;53303;47.476;8.084;2022-11-04T05:33:14;95551.69;;;19.09;47.01
66486;BME280;53303;47.476;8.084;2022-11-04T05:35:39;95574.59;;;19.27;46.79
66486;BME280;53303;47.476;8.084;2022-11-04T05:38:04;95550.16;;;19.02;46.78
66486;BME280;53303;47.476;8.084;2022-11-04T05:40:30;95556.50;;;19.20;46.62
66486;BME280;53303;47.476;8.084;2022-11-04T05:42:59;95568.81;;;19.25;46.67
66486;BME280;53303;47.476;8.084;2022-11-04T05:45:26;95560.00;;;19.20;46.49
66486;BME280;53303;47.476;8.084;2022-11-04T05:48:03;95564.53;;;19.18;46.26
66486;BME280;53303;47.476;8.084;2022-11-04T05:50:30;95572.09;;;19.23;46.14
66486;BME280;53303;47.476;8.084;2022-11-04T05:52:59;95571.34;;;19.23;46.16
66486;BME280;53303;47.476;8.084;2022-11-04T05:55:25;95572.06;;;19.17;45.99
66486;BME280;53303;47.476;8.084;2022-11-04T05:57:53;95555.94;;;19.10;46.10
66486;BME280;53303;47.476;8.084;2022-11-04T06:00:18;95550.91;;;19.09;46.10
66486;BME280;53303;47.476;8.084;2022-11-04T06:02:44;95565.53;;;19.20;45.72
66486;BME280;53303;47.476;8.084;2022-11-04T06:05:09;95546.66;;;19.08;45.92
66486;BME280;53303;47.476;8.084;2022-11-04T06:07:35;95559.28;;;19.20;45.72
66486;BME280;53303;47.476;8.084;2022-11-04T06:10:01;95561.00;;;19.17;45.80
66486;BME280;53303;47.476;8.084;2022-11-04T06:12:26;95568.81;;;19.19;45.70
66486;BME280;53303;47.476;8.084;2022-11-04T06:14:52;95578.81;;;19.11;45.62
66486;BME280;53303;47.476;8.084;2022-11-04T06:17:20;95583.63;;;19.16;45.49
66486;BME280;53303;47.476;8.084;2022-11-04T06:19:46;95600.22;;;19.16;45.40
66486;BME280;53303;47.476;8.084;2022-11-04T06:22:14;95599.47;;;19.15;45.29
66486;BME280;53303;47.476;8.084;2022-11-04T06:24:40;95594.91;;;19.07;45.52
66486;BME280;53303;47.476;8.084;2022-11-04T06:27:06;95615.31;;;19.15;45.53
66486;BME280;53303;47.476;8.084;2022-11-04T06:29:31;95612.56;;;19.15;45.37
66486;BME280;53303;47.476;8.084;2022-11-04T06:31:57;95615.31;;;19.15;45.14
66486;BME280;53303;47.476;8.084;2022-11-04T06:34:22;95613.28;;;19.10;45.26
66486;BME280;53303;47.476;8.084;2022-11-04T06:36:50;95619.34;;;19.14;45.33
66486;BME280;53303;47.476;8.084;2022-11-04T06:39:15;95609.50;;;19.07;45.24
66486;BME280;53303;47.476;8.084;2022-11-04T06:41:43;95613.78;;;19.08;45.06
66486;BME280;53303;47.476;8.084;2022-11-04T06:44:11;95621.09;;;19.11;45.26
66486;BME280;53303;47.476;8.084;2022-11-04T06:46:38;95617.53;;;19.11;44.97
66486;BME280;53303;47.476;8.084;2022-11-04T06:49:11;95599.13;;;18.96;45.07
66486;BME280;53303;47.476;8.084;2022-11-04T06:51:36;95618.81;;;19.10;44.81
66486;BME280;53303;47.476;8.084;2022-11-04T06:54:02;95611.75;;;19.03;44.71
66486;BME280;53303;47.476;8.084;2022-11-04T06:56:27;95610.25;;;19.08;44.82
66486;BME280;53303;47.476;8.084;2022-11-04T06:58:55;95618.56;;;19.08;44.80
66486;BME280;53303;47.476;8.084;2022-11-04T07:01:24;95618.56;;;19.08;44.59
66486;BME280;53303;47.476;8.084;2022-11-04T07:03:59;95621.31;;;19.02;44.77
66486;BME280;53303;47.476;8.084;2022-11-04T07:06:26;95608.47;;;18.99;44.73
66486;BME280;53303;47.476;8.084;2022-11-04T07:08:56;95614.50;;;19.03;44.54
66486;BME280;53303;47.476;8.084;2022-11-04T07:11:21;95632.13;;;19.06;44.62
66486;BME280;53303;47.476;8.084;2022-11-04T07:13:48;95611.25;;;19.05;44.57
66486;BME280;53303;47.476;8.084;2022-11-04T07:16:14;95602.44;;;19.00;44.66
66486;BME280;53303;47.476;8.084;2022-11-04T07:18:42;95600.94;;;19.05;44.69
66486;BME280;53303;47.476;8.084;2022-11-04T07:21:10;95589.34;;;18.95;44.69
66486;BME280;53303;47.476;8.084;2022-11-04T07:23:36;95602.94;;;19.05;44.44
66486;BME280;53303;47.476;8.084;2022-11-04T07:26:04;95596.66;;;19.04;44.53
66486;BME280;53303;47.476;8.084;2022-11-04T07:28:30;95586.09;;;18.97;44.59
66486;BME280;53303;47.476;8.084;2022-11-04T07:30:59;95587.59;;;19.03;44.56
66486;BME280;53303;47.476;8.084;2022-11-04T07:33:28;95577.28;;;18.98;44.70
66486;BME280;53303;47.476;8.084;2022-11-04T07:35:54;95570.25;;;18.97;44.59
66486;BME280;53303;47.476;8.084;2022-11-04T07:38:22;95558.94;;;18.95;44.69
66486;BME280;53303;47.476;8.084;2022-11-04T07:40:48;95563.50;;;19.04;44.60
66486;BME280;53303;47.476;8.084;2022-11-04T07:43:16;95560.72;;;19.04;44.67
66486;BME280;53303;47.476;8.084;2022-11-04T07:45:44;95555.19;;;19.04;44.82
66486;BME280;53303;47.476;8.084;2022-11-04T07:48:09;95544.34;;;18.95;44.85
66486;BME280;53303;47.476;8.084;2022-11-04T07:50:39;95557.97;;;19.04;44.86
66486;BME280;53303;47.476;8.084;2022-11-04T07:53:07;95542.84;;;18.99;44.92
66486;BME280;53303;47.476;8.084;2022-11-04T07:55:32;95537.06;;;18.97;44.51
66486;BME280;53303;47.476;8.084;2022-11-04T07:57:57;95544.63;;;19.02;44.88
66486;BME280;53303;47.476;8.084;2022-11-04T08:00:23;95545.38;;;19.03;45.03
66486;BME280;53303;47.476;8.084;2022-11-04T08:02:51;95518.16;;;18.85;44.97
66486;BME280;53303;47.476;8.084;2022-11-04T08:05:16;95543.88;;;19.02;44.74
66486;BME280;53303;47.476;8.084;2022-11-04T08:07:42;95538.34;;;19.02;44.94
66486;BME280;53303;47.476;8.084;2022-11-04T08:10:10;95511.66;;;18.88;44.82
66486;BME280;53303;47.476;8.084;2022-11-04T08:12:35;95527.53;;;18.98;44.99
66486;BME280;53303;47.476;8.084;2022-11-04T08:15:02;95529.75;;;19.00;45.16
66486;BME280;53303;47.476;8.084;2022-11-04T08:17:30;95515.94;;;18.94;45.18
66486;BME280;53303;47.476;8.084;2022-11-04T08:19:55;95533.31;;;19.00;45.10
66486;BME280;53303;47.476;8.084;2022-11-04T08:22:21;95541.38;;;19.04;45.27
66486;BME280;53303;47.476;8.084;2022-11-04T08:24:48;95532.78;;;18.96;45.19
66486;BME280;53303;47.476;8.084;2022-11-04T08:27:14;95537.31;;;19.05;45.19
66486;BME280;53303;47.476;8.084;2022-11-04T08:29:39;95540.88;;;19.06;45.25
66486;BME280;53303;47.476;8.084;2022-11-04T08:32:06;95527.53;;;18.98;45.42
66486;BME280;53303;47.476;8.084;2022-11-04T08:34:32;95545.88;;;19.07;45.25
66486;BME280;53303;47.476;8.084;2022-11-04T08:36:58;95545.13;;;19.07;45.45
66486;BME280;53303;47.476;8.084;2022-11-04T08:39:24;95547.91;;;19.07;45.29
66486;BME280;53303;47.476;8.084;2022-11-04T08:41:50;95546.66;;;19.08;45.40
66486;BME280;53303;47.476;8.084;2022-11-04T08:44:18;95551.41;;;19.07;45.48
66486;BME280;53303;47.476;8.084;2022-11-04T08:46:44;95545.88;;;19.07;45.48
66486;BME280;53303;47.476;8.084;2022-11-04T08:49:10;95552.69;;;19.06;45.25
66486;BME280;53303;47.476;8.084;2022-11-04T08:51:38;95556.44;;;19.09;45.80
66486;BME280;53303;47.476;8.084;2022-11-04T08:54:04;95555.94;;;19.10;45.64
66486;BME280;53303;47.476;8.084;2022-11-04T08:56:33;95552.69;;;19.06;45.87
66486;BME280;53303;47.476;8.084;2022-11-04T08:59:01;95549.66;;;19.04;45.56
66486;BME280;53303;47.476;8.084;2022-11-04T09:01:31;95564.25;;;19.10;45.30
66486;BME280;53303;47.476;8.084;2022-11-04T09:03:59;95540.34;;;19.01;45.48
66486;BME280;53303;47.476;8.084;2022-11-04T09:06:31;95556.19;;;19.07;45.59
66486;BME280;53303;47.476;8.084;2022-11-04T09:08:58;95557.97;;;19.10;45.56
66486;BME280;53303;47.476;8.084;2022-11-04T09:11:29;95553.44;;;19.07;45.68
66486;BME280;53303;47.476;8.084;2022-11-04T09:13:58;95554.41;;;19.03;46.02
66486;BME280;53303;47.476;8.084;2022-11-04T09:16:23;95554.97;;;19.13;46.10
66486;BME280;53303;47.476;8.084;2022-11-04T09:18:49;95552.19;;;19.13;46.15
66486;BME280;53303;47.476;8.084;2022-11-04T09:21:14;95556.47;;;19.14;45.92
66486;BME280;53303;47.476;8.084;2022-11-04T09:23:43;95552.94;;;19.14;45.99
66486;BME280;53303;47.476;8.084;2022-11-04T09:26:11;95544.66;;;19.14;46.02
66486;BME280;53303;47.476;8.084;2022-11-04T09:28:37;95543.16;;;19.13;45.75
66486;BME280;53303;47.476;8.084;2022-11-04T09:31:11;95545.91;;;19.13;45.67
66486;BME280;53303;47.476;8.084;2022-11-04T09:33:41;95541.63;;;19.12;45.38
66486;BME280;53303;47.476;8.084;2022-11-04T09:36:07;95549.19;;;19.11;45.41
66486;BME280;53303;47.476;8.084;2022-11-04T09:38:35;95545.63;;;19.11;45.25
66486;BME280;53303;47.476;8.084;2022-11-04T09:41:00;95537.59;;;19.07;45.22
66486;BME280;53303;47.476;8.084;2022-11-04T09:46:20;95543.41;;;19.09;45.13
66486;BME280;53303;47.476;8.084;2022-11-04T09:48:49;95545.13;;;19.07;44.99
66486;BME280;53303;47.476;8.084;2022-11-04T09:51:18;95536.31;;;19.02;45.15
66486;BME280;53303;47.476;8.084;2022-11-04T09:53:49;95551.44;;;19.13;45.05
66486;BME280;53303;47.476;8.084;2022-11-04T09:56:24;95544.63;;;19.08;44.99
66486;BME280;53303;47.476;8.084;2022-11-04T09:58:52;95544.13;;;19.04;45.06
66486;BME280;53303;47.476;8.084;2022-11-04T10:21:19;95542.59;;;19.03;45.70
66486;BME280;53303;47.476;8.084;2022-11-04T10:26:42;95547.19;;;19.17;45.80
66486;BME280;53303;47.476;8.084;2022-11-04T10:32:17;95530.06;;;19.13;46.06
66486;BME280;53303;47.476;8.084;2022-11-04T10:34:56;95526.56;;;19.18;45.60
66486;BME280;53303;47.476;8.084;2022-11-04T10:37:25;95522.03;;;19.15;46.08
66486;BME280;53303;47.476;8.084;2022-11-04T10:39:58;95505.69;;;19.12;45.67
66486;BME280;53303;47.476;8.084;2022-11-04T10:42:24;95512.72;;;19.13;45.50
66486;BME280;53303;47.476;8.084;2022-11-04T10:44:50;95523.06;;;19.24;45.43
66486;BME280;53303;47.476;8.084;2022-11-04T10:50:51;95517.53;;;19.18;45.34
66486;BME280;53303;47.476;8.084;2022-11-04T10:53:23;95516.75;;;19.23;44.97
66486;BME280;53303;47.476;8.084;2022-11-04T10:58:18;95516.75;;;19.23;44.83
66486;BME280;53303;47.476;8.084;2022-11-04T11:00:48;95510.47;;;19.17;44.87
66486;BME280;53303;47.476;8.084;2022-11-04T11:03:30;95522.03;;;19.27;44.91
66486;BME280;53303;47.476;8.084;2022-11-04T11:08:58;95527.09;;;19.28;45.12
66486;BME280;53303;47.476;8.084;2022-11-04T11:11:45;95524.31;;;19.28;45.11
66486;BME280;53303;47.476;8.084;2022-11-04T11:17:22;95524.56;;;19.25;45.15
66486;BME280;53303;47.476;8.084;2022-11-04T11:25:12;95523.31;;;19.26;45.10
66486;BME280;53303;47.476;8.084;2022-11-04T11:27:40;95520.56;;;19.26;45.11
66486;BME280;53303;47.476;8.084;2022-11-04T11:30:23;95514.00;;;19.23;44.69
66486;BME280;53303;47.476;8.084;2022-11-04T11:35:32;95516.28;;;19.30;44.80
66486;BME280;53303;47.476;8.084;2022-11-04T11:37:59;95519.56;;;19.29;45.00
66486;BME280;53303;47.476;8.084;2022-11-04T11:40:34;95516.28;;;19.30;45.01
66486;BME280;53303;47.476;8.084;2022-11-04T11:43:03;95498.91;;;19.30;44.68
66486;BME280;53303;47.476;8.084;2022-11-04T11:45:32;95515.28;;;19.33;44.84
66486;BME280;53303;47.476;8.084;2022-11-04T11:47:57;95491.84;;;19.23;44.72
66486;BME280;53303;47.476;8.084;2022-11-04T11:50:26;95509.25;;;19.35;44.84
66486;BME280;53303;47.476;8.084;2022-11-04T11:53:16;95503.47;;;19.33;44.74
66486;BME280;53303;47.476;8.084;2022-11-04T11:55:47;95510.78;;;19.36;44.47
66486;BME280;53303;47.476;8.084;2022-11-04T12:00:55;95490.63;;;19.24;44.39
66486;BME280;53303;47.476;8.084;2022-11-04T12:11:35;95478.81;;;19.29;44.44
66486;BME280;53303;47.476;8.084;2022-11-04T12:14:09;95500.19;;;19.40;44.38
66486;BME280;53303;47.476;8.084;2022-11-04T12:16:49;95500.19;;;19.40;44.42
66486;BME280;53303;47.476;8.084;2022-11-04T12:30:20;95513.78;;;19.44;45.07
66486;BME280;53303;47.476;8.084;2022-11-04T12:38:01;95512.78;;;19.52;46.01
66486;BME280;53303;47.476;8.084;2022-11-04T12:43:09;95510.28;;;19.60;46.35
66486;BME280;53303;47.476;8.084;2022-11-04T12:45:51;95503.50;;;19.61;46.39
66486;BME280;53303;47.476;8.084;2022-11-04T12:51:37;95509.78;;;19.62;46.74
66486;BME280;53303;47.476;8.084;2022-11-04T12:56:42;95504.25;;;19.73;47.33
66486;BME280;53303;47.476;8.084;2022-11-04T12:59:24;95500.22;;;19.68;47.78
66486;BME280;53303;47.476;8.084;2022-11-04T13:02:00;95507.56;;;19.77;47.87
66486;BME280;53303;47.476;8.084;2022-11-04T13:04:37;95516.13;;;19.79;47.97
66486;BME280;53303;47.476;8.084;2022-11-04T13:07:09;95514.34;;;19.82;48.12
66486;BME280;53303;47.476;8.084;2022-11-04T13:09:44;95507.31;;;19.81;48.64
66486;BME280;53303;47.476;8.084;2022-11-04T13:12:15;95520.91;;;19.90;50.04
66486;BME280;53303;47.476;8.084;2022-11-04T13:15:00;95506.03;;;19.76;50.17
66486;BME280;53303;47.476;8.084;2022-11-04T13:17:31;95519.38;;;19.94;50.73
66486;BME280;53303;47.476;8.084;2022-11-04T13:20:02;95514.59;;;19.95;50.88
66486;BME280;53303;47.476;8.084;2022-11-04T13:22:35;95509.56;;;19.93;50.98
66486;BME280;53303;47.476;8.084;2022-11-04T13:27:42;95519.38;;;19.94;50.82
66486;BME280;53303;47.476;8.084;2022-11-04T13:36:04;95530.19;;;19.87;51.07
66486;BME280;53303;47.476;8.084;2022-11-04T13:38:37;95532.97;;;19.92;50.91
66486;BME280;53303;47.476;8.084;2022-11-04T13:43:56;95540.75;;;20.00;59.60
66486;BME280;53303;47.476;8.084;2022-11-04T13:46:24;95549.81;;;20.17;61.14
66486;BME280;53303;47.476;8.084;2022-11-04T13:49:03;95547.56;;;20.15;56.14
66486;BME280;53303;47.476;8.084;2022-11-04T13:54:01;95557.13;;;20.20;54.21
66486;BME280;53303;47.476;8.084;2022-11-04T13:56:38;95550.84;;;20.20;55.63
66486;BME280;53303;47.476;8.084;2022-11-04T13:59:26;95557.16;;;20.14;56.43
66486;BME280;53303;47.476;8.084;2022-11-04T14:04:42;95562.94;;;20.16;56.90
66486;BME280;53303;47.476;8.084;2022-11-04T14:07:10;95560.16;;;20.16;56.82
66486;BME280;53303;47.476;8.084;2022-11-04T14:14:46;95563.19;;;20.13;56.68
66486;BME280;53303;47.476;8.084;2022-11-04T14:27:44;95556.38;;;20.03;54.81
66486;BME280;53303;47.476;8.084;2022-11-04T14:33:22;95570.97;;;20.03;54.00
66486;BME280;53303;47.476;8.084;2022-11-04T14:35:50;95563.94;;;19.96;53.63
66486;BME280;53303;47.476;8.084;2022-11-04T14:38:26;95574.00;;;20.05;53.21
66486;BME280;53303;47.476;8.084;2022-11-04T14:41:28;95572.75;;;20.01;52.75
66486;BME280;53303;47.476;8.084;2022-11-04T14:44:00;95582.84;;;20.04;52.37
66486;BME280;53303;47.476;8.084;2022-11-04T14:46:30;95583.34;;;20.02;51.99
66486;BME280;53303;47.476;8.084;2022-11-04T14:48:58;95583.09;;;20.00;51.70
66486;BME280;53303;47.476;8.084;2022-11-04T14:51:32;95597.19;;;20.02;51.46
66486;BME280;53303;47.476;8.084;2022-11-04T14:54:09;95591.41;;;20.00;50.92
66486;BME280;53303;47.476;8.084;2022-11-04T14:56:37;95596.41;;;20.02;50.93
66486;BME280;53303;47.476;8.084;2022-11-04T14:59:05;95597.69;;;20.01;50.67
66486;BME280;53303;47.476;8.084;2022-11-04T15:01:37;95601.69;;;20.00;50.43
66486;BME280;53303;47.476;8.084;2022-11-04T15:06:40;95600.19;;;19.99;49.91
66486;BME280;53303;47.476;8.084;2022-11-04T15:09:21;95607.25;;;19.94;49.95
66486;BME280;53303;47.476;8.084;2022-11-04T15:11:47;95592.16;;;19.89;49.89
66486;BME280;53303;47.476;8.084;2022-11-04T15:14:37;95604.47;;;19.94;49.49
66486;BME280;53303;47.476;8.084;2022-11-04T15:17:02;95608.50;;;19.93;49.27
66486;BME280;53303;47.476;8.084;2022-11-04T15:19:32;95612.78;;;19.94;48.77
66486;BME280;53303;47.476;8.084;2022-11-04T15:22:02;95614.06;;;19.93;49.02
66486;BME280;53303;47.476;8.084;2022-11-04T15:24:29;95614.06;;;19.93;48.77
66486;BME280;53303;47.476;8.084;2022-11-04T15:27:01;95598.94;;;19.83;48.58
66486;BME280;53303;47.476;8.084;2022-11-04T15:29:27;95616.53;;;19.91;48.50
66486;BME280;53303;47.476;8.084;2022-11-04T15:32:03;95605.22;;;19.77;48.40
66486;BME280;53303;47.476;8.084;2022-11-04T15:34:29;95607.97;;;19.83;48.55
66486;BME280;53303;47.476;8.084;2022-11-04T15:36:58;95619.84;;;19.89;47.97
66486;BME280;53303;47.476;8.084;2022-11-04T15:39:29;95622.34;;;19.87;48.12
66486;BME280;53303;47.476;8.084;2022-11-04T15:42:01;95626.38;;;19.81;47.96
66486;BME280;53303;47.476;8.084;2022-11-04T15:44:52;95637.94;;;19.85;48.04
66486;BME280;53303;47.476;8.084;2022-11-04T15:49:48;95647.50;;;19.84;47.97
66486;BME280;53303;47.476;8.084;2022-11-04T15:52:21;95652.28;;;19.83;47.83
66486;BME280;53303;47.476;8.084;2022-11-04T15:54:49;95651.78;;;19.79;47.83